Kamloops Airport
CYKA : now visible

Airfield :











YOU CAN JOIN US ON...

 
LOGIN :

Register | Disclaimer

   EN    FR    IT 

 









Legend :    VFR   Marginal VFR   IFR   Intensive IFR   Very Intensive IFR
Visi :
Ceiling :
>= 8 km
>= 3000ft
5 to 8 km
1000 to 3000 ft
1500m to 5 km
500 to 1000 ft
800 to 1500m
200 to 500 ft
< 800m
< 200 ft
Symbols :   Thunderstorms  Fog  Heavy snow  Heavy precipitations  Wind > 20 kt






- Airport Elevation : 1133 ft
- IATA code : YKA


CYKA - Kamloops

CURRENT METAR :
  • 162000Z 18003KT 120V200 40SM -SHRA FEW020 BKN040TCU BKN065 13/07 A2992 RMK CU1TCU4SC2 SLP139

EXPIRED METARs :
  • 161900Z 21005KT 30SM -SHRA FEW020 BKN042 BKN070 12/08 A2993 RMK SC2SC3AC2 CVCTV CLD EMBD SLP143
  • 161800Z 28007KT 10SM -SHRA FEW020 BKN039 OVC100 11/07 A2994 RMK SC2SC5AC1 CVCTV CLD EMBD. VIS W 30 SLP148
  • 161700Z 27011KT 30SM -SHRA FEW020 BKN048 11/07 A2994 RMK SC2SC5 CVCTV CLD EMBD SLP148
  • 161643Z 27012KT 30SM -SHRA FEW020 BKN048 11/06 A2994 RMK SC2SC5 CVCTV CLD EMBD SLP149
  • 161600Z 28011KT 30SM FEW020 BKN045 BKN100 12/07 A2995 RMK SC1SC5AC1 SLP149

TAF TAF CYKA
Valid from the 16 at 19:00 until the 17 at 07:00 UTC


161840Z 1619/1707 28010KT P6SM BKN050
TEMPO 1619/1707 5SM -SHRA VCTS BR FEW020 BKN050CB
BECMG 1704/1706 09008KT RMK NXT FCST BY 170100Z
CZVR FIR / North America



MET'MAP, your aeronautical weather chart ! - Copyright ORBIFLY December 2007 - Disclaimer

ORBIFLY MET'MAP TEAM :

Programming & Development : Alexandra Zaïnal
Original concept : Baudouin d'Aumeries
Technical & hardware support : Manuel Goepfert
Assistance : Marc-Olivier Méhu




SOURCES & CREDITS :

   NOAA       Earth
Advisory